Kurumoch International Airport
UWWW : now visible

Airfield :











YOU CAN JOIN US ON...

 
LOGIN :

Register | Disclaimer

   EN    FR    IT 

 









Legend :    VFR   Marginal VFR   IFR   Intensive IFR   Very Intensive IFR
Visi :
Ceiling :
>= 8 km
>= 3000ft
5 to 8 km
1000 to 3000 ft
1500m to 5 km
500 to 1000 ft
800 to 1500m
200 to 500 ft
< 800m
< 200 ft
Symbols :   Thunderstorms  Fog  Heavy snow  Heavy precipitations  Wind > 20 kt






- Airport Elevation : 477 ft
- IATA code : KUF


UWWW - Kurumoch International

CURRENT METAR :
  • 291430Z 06004MPS CAVOK 25/08 Q1019 R15/CLRD60 NOSIG RMK QFE752/1003

EXPIRED METARs :
  • 291400Z 06005MPS CAVOK 25/09 Q1019 R15/CLRD60 NOSIG RMK QFE752/1003
  • 291330Z 07004MPS 360V150 CAVOK 25/09 Q1019 R15/CLRD60 NOSIG RMK QFE753/1004
  • 291300Z 07004MPS 040V100 CAVOK 25/09 Q1019 R15/CLRD60 NOSIG RMK QFE753/1004
  • 291230Z 07003MPS CAVOK 25/09 Q1020 R15/CLRD60 NOSIG RMK QFE753/1004
  • 291200Z 06004MPS 020V100 CAVOK 25/10 Q1020 R15/CLRD60 NOSIG RMK QFE753/1004

TAF TAF UWWW
Valid from the 29 at 15:00 until the 30 at 15:00 UTC


291355Z 2915/3015 05003G08MPS 9999 SCT030 TX28/3012Z TN12/3001Z
BECMG 3003/3004 08003G08MPS
TEMPO 3004/3015 10006G12MPS
UWWW FIR / Europe



MET'MAP, your aeronautical weather chart ! - Copyright ORBIFLY December 2007 - Disclaimer

ORBIFLY MET'MAP TEAM :

Programming & Development : Alexandra Zaïnal
Concept & original design : Baudouin d'Aumeries
Assistance for programming : Marc-Olivier Méhu
Technical & hardware support : Manuel Goepfert

Contact : metmap@orbifly.com




SOURCES & CREDITS :

   NOAA       Earth
Advisory